sensor_id;sensor_type;location;lat;lon;timestamp;pressure;altitude;pressure_sealevel;temperature;humidity
68433;BME280;55412;51.350;17.056;2024-03-02T00:00:08;99528.28;;;9.31;83.35
68433;BME280;55412;51.350;17.056;2024-03-02T00:02:40;99528.28;;;9.31;83.16
68433;BME280;55412;51.350;17.056;2024-03-02T00:05:07;99529.19;;;9.29;83.09
68433;BME280;55412;51.350;17.056;2024-03-02T00:07:33;99523.13;;;9.28;83.16
68433;BME280;55412;51.350;17.056;2024-03-02T00:10:00;99520.56;;;9.28;83.61
68433;BME280;55412;51.350;17.056;2024-03-02T00:12:26;99520.56;;;9.28;83.10
68433;BME280;55412;51.350;17.056;2024-03-02T00:14:54;99511.94;;;9.28;83.14
68433;BME280;55412;51.350;17.056;2024-03-02T00:17:24;99507.69;;;9.21;83.22
68433;BME280;55412;51.350;17.056;2024-03-02T00:19:53;99512.81;;;9.24;83.02
68433;BME280;55412;51.350;17.056;2024-03-02T00:22:19;99517.13;;;9.25;83.19
68433;BME280;55412;51.350;17.056;2024-03-02T00:24:45;99515.38;;;9.25;83.25
68433;BME280;55412;51.350;17.056;2024-03-02T00:27:13;99518.88;;;9.23;83.53
68433;BME280;55412;51.350;17.056;2024-03-02T00:29:40;99524.09;;;9.20;83.18
68433;BME280;55412;51.350;17.056;2024-03-02T00:32:16;99524.09;;;9.20;83.40
68433;BME280;55412;51.350;17.056;2024-03-02T00:34:42;99522.38;;;9.19;83.42
68433;BME280;55412;51.350;17.056;2024-03-02T00:37:08;99521.53;;;9.17;83.46
68433;BME280;55412;51.350;17.056;2024-03-02T00:39:35;99522.44;;;9.12;83.24
68433;BME280;55412;51.350;17.056;2024-03-02T00:42:03;99514.72;;;9.06;83.14
68433;BME280;55412;51.350;17.056;2024-03-02T00:44:33;99519.13;;;8.98;83.35
68433;BME280;55412;51.350;17.056;2024-03-02T00:47:01;99508.84;;;8.91;82.79
68433;BME280;55412;51.350;17.056;2024-03-02T00:49:27;99516.63;;;8.91;83.29
68433;BME280;55412;51.350;17.056;2024-03-02T00:51:54;99516.63;;;8.86;83.52
68433;BME280;55412;51.350;17.056;2024-03-02T00:54:25;99522.72;;;8.82;83.41
68433;BME280;55412;51.350;17.056;2024-03-02T00:56:52;99512.44;;;8.74;83.31
68433;BME280;55412;51.350;17.056;2024-03-02T00:59:21;99514.22;;;8.66;83.10
68433;BME280;55412;51.350;17.056;2024-03-02T01:01:48;99515.16;;;8.56;82.95
68433;BME280;55412;51.350;17.056;2024-03-02T01:04:15;99514.38;;;8.48;83.18
68433;BME280;55412;51.350;17.056;2024-03-02T01:06:44;99504.09;;;8.40;82.96
68433;BME280;55412;51.350;17.056;2024-03-02T01:09:11;99521.31;;;8.37;83.25
68433;BME280;55412;51.350;17.056;2024-03-02T01:11:37;99519.63;;;8.36;83.68
68433;BME280;55412;51.350;17.056;2024-03-02T01:14:03;99519.63;;;8.31;83.38
68433;BME280;55412;51.350;17.056;2024-03-02T01:16:30;99510.19;;;8.25;83.95
68433;BME280;55412;51.350;17.056;2024-03-02T01:18:56;99507.63;;;8.21;83.46
68433;BME280;55412;51.350;17.056;2024-03-02T01:21:25;99516.22;;;8.24;83.94
68433;BME280;55412;51.350;17.056;2024-03-02T01:23:51;99515.34;;;8.27;83.71
68433;BME280;55412;51.350;17.056;2024-03-02T01:26:16;99512.72;;;8.31;84.49
68433;BME280;55412;51.350;17.056;2024-03-02T01:28:46;99511.00;;;8.35;84.23
68433;BME280;55412;51.350;17.056;2024-03-02T01:31:12;99504.97;;;8.38;84.20
68433;BME280;55412;51.350;17.056;2024-03-02T01:33:38;99511.84;;;8.40;83.90
68433;BME280;55412;51.350;17.056;2024-03-02T01:36:10;99511.81;;;8.43;83.95
68433;BME280;55412;51.350;17.056;2024-03-02T01:38:36;99503.19;;;8.43;84.20
68433;BME280;55412;51.350;17.056;2024-03-02T01:41:02;99505.72;;;8.50;84.43
68433;BME280;55412;51.350;17.056;2024-03-02T01:43:30;99508.28;;;8.52;84.16
68433;BME280;55412;51.350;17.056;2024-03-02T01:45:56;99502.25;;;8.54;84.11
68433;BME280;55412;51.350;17.056;2024-03-02T01:48:22;99503.97;;;8.55;83.93
68433;BME280;55412;51.350;17.056;2024-03-02T01:50:48;99506.53;;;8.57;84.03
68433;BME280;55412;51.350;17.056;2024-03-02T01:53:14;99514.28;;;8.58;84.12
68433;BME280;55412;51.350;17.056;2024-03-02T01:55:39;99500.50;;;8.56;83.83
68433;BME280;55412;51.350;17.056;2024-03-02T01:58:05;99506.53;;;8.57;84.01
68433;BME280;55412;51.350;17.056;2024-03-02T02:00:32;99519.47;;;8.57;83.49
68433;BME280;55412;51.350;17.056;2024-03-02T02:03:01;99514.31;;;8.54;84.02
68433;BME280;55412;51.350;17.056;2024-03-02T02:05:27;99510.03;;;8.50;83.66
68433;BME280;55412;51.350;17.056;2024-03-02T02:07:52;99509.19;;;8.48;83.53
68433;BME280;55412;51.350;17.056;2024-03-02T02:10:18;99502.34;;;8.42;83.93
68433;BME280;55412;51.350;17.056;2024-03-02T02:12:47;99504.94;;;8.41;84.10
68433;BME280;55412;51.350;17.056;2024-03-02T02:15:25;99504.09;;;8.40;83.92
68433;BME280;55412;51.350;17.056;2024-03-02T02:17:52;99502.38;;;8.39;84.01
68433;BME280;55412;51.350;17.056;2024-03-02T02:20:18;99489.44;;;8.33;83.78
68433;BME280;55412;51.350;17.056;2024-03-02T02:23:01;99500.66;;;8.34;83.82
68433;BME280;55412;51.350;17.056;2024-03-02T02:25:27;99496.34;;;8.29;84.03
68433;BME280;55412;51.350;17.056;2024-03-02T02:27:54;99504.13;;;8.31;84.25
68433;BME280;55412;51.350;17.056;2024-03-02T02:30:25;99502.41;;;8.27;84.17
68433;BME280;55412;51.350;17.056;2024-03-02T02:32:51;99505.00;;;8.22;84.14
68433;BME280;55412;51.350;17.056;2024-03-02T02:35:17;99493.00;;;8.14;83.58
68433;BME280;55412;51.350;17.056;2024-03-02T02:37:43;99491.34;;;8.07;83.94
68433;BME280;55412;51.350;17.056;2024-03-02T02:40:11;99496.53;;;8.08;83.84
68433;BME280;55412;51.350;17.056;2024-03-02T02:42:38;99495.69;;;8.03;84.10
68433;BME280;55412;51.350;17.056;2024-03-02T02:45:05;99483.66;;;7.97;83.68
68433;BME280;55412;51.350;17.056;2024-03-02T02:47:31;99466.50;;;7.84;84.04
68433;BME280;55412;51.350;17.056;2024-03-02T02:49:59;99470.78;;;7.85;83.94
68433;BME280;55412;51.350;17.056;2024-03-02T02:52:24;99482.88;;;7.82;83.55
68433;BME280;55412;51.350;17.056;2024-03-02T02:54:50;99482.88;;;7.77;83.83
68433;BME280;55412;51.350;17.056;2024-03-02T02:57:16;99471.72;;;7.70;84.04
68433;BME280;55412;51.350;17.056;2024-03-02T02:59:42;99479.50;;;7.67;83.82
68433;BME280;55412;51.350;17.056;2024-03-02T03:02:08;99476.94;;;7.63;83.94
68433;BME280;55412;51.350;17.056;2024-03-02T03:04:33;99478.69;;;7.58;84.37
68433;BME280;55412;51.350;17.056;2024-03-02T03:06:59;99466.66;;;7.49;84.36
68433;BME280;55412;51.350;17.056;2024-03-02T03:09:25;99468.38;;;7.47;84.30
68433;BME280;55412;51.350;17.056;2024-03-02T03:11:50;99470.16;;;7.42;84.49
68433;BME280;55412;51.350;17.056;2024-03-02T03:14:16;99469.28;;;7.38;84.25
68433;BME280;55412;51.350;17.056;2024-03-02T03:16:42;99471.03;;;7.33;84.46
68433;BME280;55412;51.350;17.056;2024-03-02T03:19:13;99471.03;;;7.26;84.52
68433;BME280;55412;51.350;17.056;2024-03-02T03:21:39;99476.22;;;7.23;84.04
68433;BME280;55412;51.350;17.056;2024-03-02T03:24:05;99480.53;;;7.17;84.14
68433;BME280;55412;51.350;17.056;2024-03-02T03:26:30;99490.03;;;7.12;84.07
68433;BME280;55412;51.350;17.056;2024-03-02T03:28:56;99488.31;;;7.05;84.52
68433;BME280;55412;51.350;17.056;2024-03-02T03:31:23;99496.91;;;7.06;84.71
68433;BME280;55412;51.350;17.056;2024-03-02T03:33:52;99493.47;;;7.04;84.69
68433;BME280;55412;51.350;17.056;2024-03-02T03:36:17;99486.59;;;6.95;84.29
68433;BME280;55412;51.350;17.056;2024-03-02T03:38:43;99490.91;;;6.99;84.93
68433;BME280;55412;51.350;17.056;2024-03-02T03:41:09;99497.78;;;6.99;84.60
68433;BME280;55412;51.350;17.056;2024-03-02T03:43:35;99491.78;;;6.98;84.37
68433;BME280;55412;51.350;17.056;2024-03-02T03:46:01;99497.78;;;6.94;84.86
68433;BME280;55412;51.350;17.056;2024-03-02T03:48:27;99492.66;;;6.91;84.84
68433;BME280;55412;51.350;17.056;2024-03-02T03:50:56;99504.69;;;6.92;84.89
68433;BME280;55412;51.350;17.056;2024-03-02T03:53:22;99502.09;;;6.95;84.54
68433;BME280;55412;51.350;17.056;2024-03-02T03:55:48;99491.78;;;6.98;84.85
68433;BME280;55412;51.350;17.056;2024-03-02T03:58:16;99493.47;;;7.05;85.54
68433;BME280;55412;51.350;17.056;2024-03-02T04:00:46;99494.31;;;7.10;85.42
68433;BME280;55412;51.350;17.056;2024-03-02T04:03:17;99491.75;;;7.15;85.60
68433;BME280;55412;51.350;17.056;2024-03-02T04:05:43;99486.56;;;7.18;84.73
68433;BME280;55412;51.350;17.056;2024-03-02T04:08:09;99486.56;;;7.27;84.91
68433;BME280;55412;51.350;17.056;2024-03-02T04:10:38;99493.38;;;7.34;85.66
68433;BME280;55412;51.350;17.056;2024-03-02T04:13:05;99502.00;;;7.42;85.36
68433;BME280;55412;51.350;17.056;2024-03-02T04:15:31;99496.78;;;7.50;85.53
68433;BME280;55412;51.350;17.056;2024-03-02T04:17:57;99500.19;;;7.55;85.43
68433;BME280;55412;51.350;17.056;2024-03-02T04:20:22;99503.63;;;7.62;85.07
68433;BME280;55412;51.350;17.056;2024-03-02T04:22:48;99504.47;;;7.67;85.04
68433;BME280;55412;51.350;17.056;2024-03-02T04:25:14;99506.16;;;7.71;85.31
68433;BME280;55412;51.350;17.056;2024-03-02T04:27:39;99510.47;;;7.75;85.25
68433;BME280;55412;51.350;17.056;2024-03-02T04:30:07;99503.56;;;7.79;84.99
68433;BME280;55412;51.350;17.056;2024-03-02T04:32:32;99510.41;;;7.83;85.39
68433;BME280;55412;51.350;17.056;2024-03-02T04:34:58;99518.16;;;7.84;84.68
68433;BME280;55412;51.350;17.056;2024-03-02T04:37:23;99518.16;;;7.87;84.95
68433;BME280;55412;51.350;17.056;2024-03-02T04:39:49;99525.03;;;7.88;85.01
68433;BME280;55412;51.350;17.056;2024-03-02T04:42:15;99526.75;;;7.85;84.60
68433;BME280;55412;51.350;17.056;2024-03-02T04:44:41;99528.47;;;7.89;84.45
68433;BME280;55412;51.350;17.056;2024-03-02T04:47:06;99524.16;;;7.91;84.92
68433;BME280;55412;51.350;17.056;2024-03-02T04:49:32;99520.69;;;7.92;84.75
68433;BME280;55412;51.350;17.056;2024-03-02T04:52:00;99523.28;;;7.95;84.56
68433;BME280;55412;51.350;17.056;2024-03-02T04:54:27;99519.84;;;7.91;84.62
68433;BME280;55412;51.350;17.056;2024-03-02T04:56:52;99517.28;;;7.84;84.23
68433;BME280;55412;51.350;17.056;2024-03-02T04:59:19;99528.50;;;7.83;84.37
68433;BME280;55412;51.350;17.056;2024-03-02T05:01:45;99523.38;;;7.80;84.43
68433;BME280;55412;51.350;17.056;2024-03-02T05:04:11;99513.88;;;7.77;84.54
68433;BME280;55412;51.350;17.056;2024-03-02T05:06:38;99522.50;;;7.74;84.25
68433;BME280;55412;51.350;17.056;2024-03-02T05:09:04;99514.78;;;7.68;84.35
68433;BME280;55412;51.350;17.056;2024-03-02T05:11:30;99526.88;;;7.65;84.48
68433;BME280;55412;51.350;17.056;2024-03-02T05:14:05;99531.19;;;7.58;84.20
68433;BME280;55412;51.350;17.056;2024-03-02T05:16:37;99526.88;;;7.54;84.22
68433;BME280;55412;51.350;17.056;2024-03-02T05:19:09;99534.66;;;7.48;84.14
68433;BME280;55412;51.350;17.056;2024-03-02T05:21:35;99529.53;;;7.43;84.56
68433;BME280;55412;51.350;17.056;2024-03-02T05:24:00;99533.81;;;7.40;84.42
68433;BME280;55412;51.350;17.056;2024-03-02T05:26:29;99540.72;;;7.35;84.03
68433;BME280;55412;51.350;17.056;2024-03-02T05:28:55;99543.31;;;7.30;84.21
68433;BME280;55412;51.350;17.056;2024-03-02T05:31:21;99539.00;;;7.26;84.25
68433;BME280;55412;51.350;17.056;2024-03-02T05:33:46;99546.75;;;7.23;84.52
68433;BME280;55412;51.350;17.056;2024-03-02T05:36:12;99546.78;;;7.20;84.63
68433;BME280;55412;51.350;17.056;2024-03-02T05:38:38;99545.06;;;7.14;84.87
68433;BME280;55412;51.350;17.056;2024-03-02T05:41:08;99549.38;;;7.14;84.42
68433;BME280;55412;51.350;17.056;2024-03-02T05:43:37;99550.22;;;7.14;85.13
68433;BME280;55412;51.350;17.056;2024-03-02T05:46:03;99548.50;;;7.13;85.28
68433;BME280;55412;51.350;17.056;2024-03-02T05:48:29;99554.53;;;7.14;84.59
68433;BME280;55412;51.350;17.056;2024-03-02T05:50:55;99556.25;;;7.16;84.32
68433;BME280;55412;51.350;17.056;2024-03-02T05:53:20;99552.78;;;7.16;85.44
68433;BME280;55412;51.350;17.056;2024-03-02T05:55:46;99559.69;;;7.15;84.98
68433;BME280;55412;51.350;17.056;2024-03-02T05:58:12;99560.53;;;7.14;84.63
68433;BME280;55412;51.350;17.056;2024-03-02T06:00:53;99555.41;;;7.13;84.87
68433;BME280;55412;51.350;17.056;2024-03-02T06:03:19;99559.66;;;7.17;85.12
68433;BME280;55412;51.350;17.056;2024-03-02T06:05:45;99564.81;;;7.18;85.03
68433;BME280;55412;51.350;17.056;2024-03-02T06:08:11;99572.59;;;7.20;84.97
68433;BME280;55412;51.350;17.056;2024-03-02T06:10:36;99567.41;;;7.22;85.40
68433;BME280;55412;51.350;17.056;2024-03-02T06:13:02;99582.03;;;7.24;85.22
68433;BME280;55412;51.350;17.056;2024-03-02T06:15:28;99574.31;;;7.27;84.58
68433;BME280;55412;51.350;17.056;2024-03-02T06:17:57;99573.44;;;7.28;84.99
68433;BME280;55412;51.350;17.056;2024-03-02T06:20:22;99572.53;;;7.34;84.60
68433;BME280;55412;51.350;17.056;2024-03-02T06:22:48;99582.03;;;7.36;84.54
68433;BME280;55412;51.350;17.056;2024-03-02T06:25:17;99580.28;;;7.41;84.80
68433;BME280;55412;51.350;17.056;2024-03-02T06:27:42;99592.31;;;7.45;84.92
68433;BME280;55412;51.350;17.056;2024-03-02T06:30:09;99587.13;;;7.48;84.44
68433;BME280;55412;51.350;17.056;2024-03-02T06:32:35;99593.19;;;7.52;84.84
68433;BME280;55412;51.350;17.056;2024-03-02T06:35:01;99581.13;;;7.57;84.89
68433;BME280;55412;51.350;17.056;2024-03-02T06:37:27;99586.25;;;7.60;85.07
68433;BME280;55412;51.350;17.056;2024-03-02T06:39:52;99587.97;;;7.69;84.51
68433;BME280;55412;51.350;17.056;2024-03-02T06:42:18;99593.09;;;7.76;84.86
68433;BME280;55412;51.350;17.056;2024-03-02T06:44:44;99580.16;;;7.83;84.94
68433;BME280;55412;51.350;17.056;2024-03-02T06:47:09;99580.13;;;7.90;85.01
68433;BME280;55412;51.350;17.056;2024-03-02T06:49:35;99591.28;;;8.00;84.96
68433;BME280;55412;51.350;17.056;2024-03-02T06:52:01;99599.88;;;8.08;84.81
68433;BME280;55412;51.350;17.056;2024-03-02T06:54:30;99596.41;;;8.15;84.73
68433;BME280;55412;51.350;17.056;2024-03-02T06:56:56;99597.22;;;8.23;84.85
68433;BME280;55412;51.350;17.056;2024-03-02T06:59:21;99603.22;;;8.28;84.55
68433;BME280;55412;51.350;17.056;2024-03-02T07:01:50;99604.94;;;8.36;84.44
68433;BME280;55412;51.350;17.056;2024-03-02T07:04:16;99595.41;;;8.44;84.18
68433;BME280;55412;51.350;17.056;2024-03-02T07:06:41;99603.13;;;8.53;84.43
68433;BME280;55412;51.350;17.056;2024-03-02T07:09:07;99602.22;;;8.60;84.31
68433;BME280;55412;51.350;17.056;2024-03-02T07:11:36;99601.25;;;8.72;84.26
68433;BME280;55412;51.350;17.056;2024-03-02T07:14:02;99604.66;;;8.81;83.84
68433;BME280;55412;51.350;17.056;2024-03-02T07:16:28;99608.03;;;8.93;83.95
68433;BME280;55412;51.350;17.056;2024-03-02T07:18:55;99613.09;;;9.05;84.12
68433;BME280;55412;51.350;17.056;2024-03-02T07:21:22;99601.75;;;9.21;83.70
68433;BME280;55412;51.350;17.056;2024-03-02T07:23:49;99601.63;;;9.32;83.61
68433;BME280;55412;51.350;17.056;2024-03-02T07:26:15;99598.09;;;9.42;83.75
68433;BME280;55412;51.350;17.056;2024-03-02T07:28:42;99593.72;;;9.49;83.72
68433;BME280;55412;51.350;17.056;2024-03-02T07:31:09;99599.69;;;9.54;83.54
68433;BME280;55412;51.350;17.056;2024-03-02T07:33:35;99602.28;;;9.57;83.87
68433;BME280;55412;51.350;17.056;2024-03-02T07:36:01;99610.00;;;9.60;83.91
68433;BME280;55412;51.350;17.056;2024-03-02T07:38:30;99599.63;;;9.61;83.84
68433;BME280;55412;51.350;17.056;2024-03-02T07:40:57;99590.09;;;9.62;83.39
68433;BME280;55412;51.350;17.056;2024-03-02T07:43:23;99602.00;;;9.81;83.24
68433;BME280;55412;51.350;17.056;2024-03-02T07:45:49;99606.19;;;9.93;83.58
68433;BME280;55412;51.350;17.056;2024-03-02T07:48:15;99607.75;;;10.05;83.50
68433;BME280;55412;51.350;17.056;2024-03-02T07:50:41;99607.47;;;10.31;83.13
68433;BME280;55412;51.350;17.056;2024-03-02T07:53:08;99608.00;;;10.56;82.58
68433;BME280;55412;51.350;17.056;2024-03-02T07:55:34;99620.66;;;10.77;82.67
68433;BME280;55412;51.350;17.056;2024-03-02T07:58:03;99623.88;;;10.93;82.89
68433;BME280;55412;51.350;17.056;2024-03-02T08:00:30;99629.03;;;10.96;82.81
68433;BME280;55412;51.350;17.056;2024-03-02T08:02:56;99619.38;;;11.04;82.68
68433;BME280;55412;51.350;17.056;2024-03-02T08:05:21;99622.66;;;11.15;82.50
68433;BME280;55412;51.350;17.056;2024-03-02T08:07:47;99619.94;;;11.24;82.33
68433;BME280;55412;51.350;17.056;2024-03-02T08:10:13;99618.19;;;11.25;82.45
68433;BME280;55412;51.350;17.056;2024-03-02T08:12:39;99617.19;;;11.30;82.56
68433;BME280;55412;51.350;17.056;2024-03-02T08:15:05;99619.66;;;11.38;82.50
68433;BME280;55412;51.350;17.056;2024-03-02T08:17:31;99619.66;;;11.40;82.34
68433;BME280;55412;51.350;17.056;2024-03-02T08:19:57;99622.13;;;11.47;82.06
68433;BME280;55412;51.350;17.056;2024-03-02T08:22:24;99612.47;;;11.54;82.06
68433;BME280;55412;51.350;17.056;2024-03-02T08:24:53;99624.47;;;11.61;81.91
68433;BME280;55412;51.350;17.056;2024-03-02T08:27:19;99621.88;;;11.61;82.00
68433;BME280;55412;51.350;17.056;2024-03-02T08:29:45;99620.00;;;11.69;82.13
68433;BME280;55412;51.350;17.056;2024-03-02T08:32:11;99623.38;;;11.73;81.80
68433;BME280;55412;51.350;17.056;2024-03-02T08:34:37;99618.13;;;11.74;81.90
68433;BME280;55412;51.350;17.056;2024-03-02T08:37:02;99620.66;;;11.80;81.49
68433;BME280;55412;51.350;17.056;2024-03-02T08:39:28;99615.34;;;11.86;82.13
68433;BME280;55412;51.350;17.056;2024-03-02T08:41:54;99598.91;;;11.86;81.81
68433;BME280;55412;51.350;17.056;2024-03-02T08:44:20;99611.78;;;11.92;82.38
68433;BME280;55412;51.350;17.056;2024-03-02T08:46:46;99611.78;;;11.92;82.13
68433;BME280;55412;51.350;17.056;2024-03-02T08:49:13;99611.81;;;11.89;82.42
68433;BME280;55412;51.350;17.056;2024-03-02T08:51:38;99613.56;;;11.90;81.86
68433;BME280;55412;51.350;17.056;2024-03-02T08:54:04;99607.44;;;11.93;81.84
68433;BME280;55412;51.350;17.056;2024-03-02T08:56:31;99609.84;;;12.02;82.50
68433;BME280;55412;51.350;17.056;2024-03-02T08:58:56;99617.44;;;12.12;82.06
68433;BME280;55412;51.350;17.056;2024-03-02T09:01:22;99617.22;;;12.23;82.22
68433;BME280;55412;51.350;17.056;2024-03-02T09:03:48;99614.25;;;12.40;81.93
68433;BME280;55412;51.350;17.056;2024-03-02T09:06:15;99607.06;;;12.51;82.21
68433;BME280;55412;51.350;17.056;2024-03-02T09:08:44;99612.84;;;12.65;81.64
68433;BME280;55412;51.350;17.056;2024-03-02T09:11:10;99613.56;;;12.72;81.86
68433;BME280;55412;51.350;17.056;2024-03-02T09:13:37;99608.31;;;12.73;81.59
68433;BME280;55412;51.350;17.056;2024-03-02T09:16:04;99615.72;;;12.90;81.29
68433;BME280;55412;51.350;17.056;2024-03-02T09:18:30;99599.13;;;12.94;81.67
68433;BME280;55412;51.350;17.056;2024-03-02T09:20:56;99616.84;;;13.16;81.29
68433;BME280;55412;51.350;17.056;2024-03-02T09:23:22;99607.88;;;13.27;81.18
68433;BME280;55412;51.350;17.056;2024-03-02T09:25:48;99608.63;;;13.33;80.99
68433;BME280;55412;51.350;17.056;2024-03-02T09:28:17;99612.13;;;13.32;81.18
68433;BME280;55412;51.350;17.056;2024-03-02T09:30:42;99621.84;;;13.25;80.99
68433;BME280;55412;51.350;17.056;2024-03-02T09:33:08;99612.38;;;13.22;81.34
68433;BME280;55412;51.350;17.056;2024-03-02T09:35:34;99613.28;;;13.20;80.83
68433;BME280;55412;51.350;17.056;2024-03-02T09:38:00;99614.16;;;13.19;81.32
68433;BME280;55412;51.350;17.056;2024-03-02T09:40:25;99615.00;;;13.19;80.84
68433;BME280;55412;51.350;17.056;2024-03-02T09:42:51;99611.47;;;13.23;80.72
68433;BME280;55412;51.350;17.056;2024-03-02T09:45:25;99614.81;;;13.28;80.78
68433;BME280;55412;51.350;17.056;2024-03-02T09:47:52;99613.94;;;13.30;80.76
68433;BME280;55412;51.350;17.056;2024-03-02T09:50:17;99620.72;;;13.37;81.11
68433;BME280;55412;51.350;17.056;2024-03-02T09:52:43;99619.72;;;13.41;81.04
68433;BME280;55412;51.350;17.056;2024-03-02T09:55:09;99610.09;;;13.44;80.69
68433;BME280;55412;51.350;17.056;2024-03-02T09:57:37;99618.66;;;13.48;80.81
68433;BME280;55412;51.350;17.056;2024-03-02T10:00:03;99627.13;;;13.56;80.45
68433;BME280;55412;51.350;17.056;2024-03-02T10:02:29;99621.72;;;13.64;80.55
68433;BME280;55412;51.350;17.056;2024-03-02T10:04:54;99619.75;;;13.72;80.17
68433;BME280;55412;51.350;17.056;2024-03-02T10:07:20;99619.56;;;13.79;80.17
68433;BME280;55412;51.350;17.056;2024-03-02T10:09:47;99620.19;;;13.88;80.13
68433;BME280;55412;51.350;17.056;2024-03-02T10:12:16;99614.75;;;13.95;80.08
68433;BME280;55412;51.350;17.056;2024-03-02T10:14:42;99614.66;;;14.00;79.82
68433;BME280;55412;51.350;17.056;2024-03-02T10:17:10;99616.28;;;14.04;79.90
68433;BME280;55412;51.350;17.056;2024-03-02T10:19:37;99616.19;;;14.07;79.66
68433;BME280;55412;51.350;17.056;2024-03-02T10:22:05;99610.00;;;14.11;79.77
68433;BME280;55412;51.350;17.056;2024-03-02T10:24:44;99602.84;;;14.18;79.88
68433;BME280;55412;51.350;17.056;2024-03-02T10:27:18;99603.47;;;14.26;79.53
68433;BME280;55412;51.350;17.056;2024-03-02T10:29:48;99591.97;;;14.33;79.36
68433;BME280;55412;51.350;17.056;2024-03-02T10:32:15;99589.97;;;14.41;79.41
68433;BME280;55412;51.350;17.056;2024-03-02T10:34:42;99594.09;;;14.50;79.23
68433;BME280;55412;51.350;17.056;2024-03-02T10:37:08;99594.75;;;14.56;79.14
68433;BME280;55412;51.350;17.056;2024-03-02T10:39:35;99589.34;;;14.62;79.19
68433;BME280;55412;51.350;17.056;2024-03-02T10:42:02;99591.72;;;14.70;78.91
68433;BME280;55412;51.350;17.056;2024-03-02T10:44:29;99587.19;;;14.75;78.74
68433;BME280;55412;51.350;17.056;2024-03-02T10:46:56;99579.28;;;14.78;78.80
68433;BME280;55412;51.350;17.056;2024-03-02T10:49:23;99584.25;;;14.86;78.74
68433;BME280;55412;51.350;17.056;2024-03-02T10:51:49;99590.22;;;14.89;78.41
68433;BME280;55412;51.350;17.056;2024-03-02T10:54:15;99584.91;;;14.92;78.48
68433;BME280;55412;51.350;17.056;2024-03-02T10:56:44;99578.72;;;14.95;78.40
68433;BME280;55412;51.350;17.056;2024-03-02T11:01:57;99575.13;;;14.98;77.90
68433;BME280;55412;51.350;17.056;2024-03-02T11:04:27;99581.19;;;15.00;78.08
68433;BME280;55412;51.350;17.056;2024-03-02T11:07:05;99569.78;;;15.02;78.12
68433;BME280;55412;51.350;17.056;2024-03-02T11:09:34;99574.94;;;15.04;77.76
68433;BME280;55412;51.350;17.056;2024-03-02T11:12:09;99574.03;;;15.05;77.85
68433;BME280;55412;51.350;17.056;2024-03-02T11:14:40;99574.94;;;15.04;77.79
68433;BME280;55412;51.350;17.056;2024-03-02T11:17:09;99568.81;;;15.05;77.89
68433;BME280;55412;51.350;17.056;2024-03-02T11:19:37;99574.69;;;15.11;77.53
68433;BME280;55412;51.350;17.056;2024-03-02T11:22:03;99580.75;;;15.12;77.47
68433;BME280;55412;51.350;17.056;2024-03-02T11:24:31;99579.84;;;15.13;77.40
68433;BME280;55412;51.350;17.056;2024-03-02T11:26:59;99584.94;;;15.17;77.50
68433;BME280;55412;51.350;17.056;2024-03-02T11:32:01;99583.09;;;15.21;77.40
68433;BME280;55412;51.350;17.056;2024-03-02T11:34:31;99576.91;;;15.24;77.09
68433;BME280;55412;51.350;17.056;2024-03-02T11:36:58;99579.38;;;15.28;77.04
68433;BME280;55412;51.350;17.056;2024-03-02T11:39:25;99574.94;;;15.30;77.23
68433;BME280;55412;51.350;17.056;2024-03-02T11:41:52;99577.44;;;15.33;77.18
68433;BME280;55412;51.350;17.056;2024-03-02T11:44:17;99579.13;;;15.34;76.90
68433;BME280;55412;51.350;17.056;2024-03-02T11:46:58;99580.91;;;15.34;76.80
68433;BME280;55412;51.350;17.056;2024-03-02T11:49:40;99577.44;;;15.33;76.96
68433;BME280;55412;51.350;17.056;2024-03-02T11:52:08;99579.25;;;15.31;76.75
68433;BME280;55412;51.350;17.056;2024-03-02T11:54:37;99577.63;;;15.27;76.53
68433;BME280;55412;51.350;17.056;2024-03-02T11:57:06;99575.72;;;15.32;76.68
68433;BME280;55412;51.350;17.056;2024-03-02T11:59:32;99575.66;;;15.34;76.60
68433;BME280;55412;51.350;17.056;2024-03-02T12:01:59;99573.13;;;15.32;76.47
68433;BME280;55412;51.350;17.056;2024-03-02T12:04:25;99578.41;;;15.31;76.41
68433;BME280;55412;51.350;17.056;2024-03-02T12:06:58;99578.34;;;15.32;76.64
68433;BME280;55412;51.350;17.056;2024-03-02T12:09:27;99589.50;;;15.37;76.38
68433;BME280;55412;51.350;17.056;2024-03-02T12:12:06;99581.59;;;15.39;76.28
68433;BME280;55412;51.350;17.056;2024-03-02T12:14:33;99579.78;;;15.41;76.09
68433;BME280;55412;51.350;17.056;2024-03-02T12:16:59;99579.84;;;15.39;75.96
68433;BME280;55412;51.350;17.056;2024-03-02T12:19:26;99575.41;;;15.41;76.07
68433;BME280;55412;51.350;17.056;2024-03-02T12:21:59;99573.91;;;15.34;76.33
68433;BME280;55412;51.350;17.056;2024-03-02T12:24:30;99584.38;;;15.34;76.05
68433;BME280;55412;51.350;17.056;2024-03-02T12:26:57;99578.28;;;15.34;76.10
68433;BME280;55412;51.350;17.056;2024-03-02T12:29:23;99574.81;;;15.33;76.15
68433;BME280;55412;51.350;17.056;2024-03-02T12:31:52;99585.22;;;15.35;75.77
68433;BME280;55412;51.350;17.056;2024-03-02T12:34:18;99573.13;;;15.32;76.08
68433;BME280;55412;51.350;17.056;2024-03-02T12:36:46;99580.09;;;15.32;75.61
68433;BME280;55412;51.350;17.056;2024-03-02T12:39:16;99568.06;;;15.28;75.61
68433;BME280;55412;51.350;17.056;2024-03-02T12:41:42;99573.91;;;15.34;75.99
68433;BME280;55412;51.350;17.056;2024-03-02T12:44:08;99568.06;;;15.28;75.79
68433;BME280;55412;51.350;17.056;2024-03-02T12:46:34;99568.84;;;15.30;75.81
68433;BME280;55412;51.350;17.056;2024-03-02T12:49:13;99576.69;;;15.30;75.28
68433;BME280;55412;51.350;17.056;2024-03-02T12:51:41;99573.28;;;15.28;75.40
68433;BME280;55412;51.350;17.056;2024-03-02T12:54:08;99570.63;;;15.29;75.43
68433;BME280;55412;51.350;17.056;2024-03-02T12:56:35;99573.19;;;15.31;75.64
68433;BME280;55412;51.350;17.056;2024-03-02T12:59:01;99571.28;;;15.34;75.35